createdAt,value
2022-12-01T00:01:10.478Z,36.85
2022-12-01T00:03:37.726Z,37.42
2022-12-01T00:06:11.703Z,34.00
2022-12-01T00:08:38.968Z,37.33
2022-12-01T00:11:12.263Z,34.83
2022-12-01T00:13:40.097Z,36.83
2022-12-01T00:16:16.017Z,32.65
2022-12-01T00:18:43.642Z,32.10
2022-12-01T00:21:15.667Z,32.07
2022-12-01T00:23:52.408Z,32.53
2022-12-01T00:26:20.607Z,36.75
2022-12-01T00:28:58.283Z,36.30
2022-12-01T00:31:25.544Z,34.70
2022-12-01T00:33:53.086Z,34.47
2022-12-01T00:36:20.006Z,35.00
2022-12-01T00:38:47.138Z,37.50
2022-12-01T00:41:14.187Z,36.58
2022-12-01T00:43:41.378Z,40.75
2022-12-01T00:46:08.842Z,38.40
2022-12-01T00:48:35.847Z,33.05
2022-12-01T00:51:03.301Z,34.38
2022-12-01T00:53:30.754Z,29.50
2022-12-01T00:55:57.641Z,42.25
2022-12-01T00:58:25.112Z,31.30
2022-12-01T01:00:59.246Z,34.88
2022-12-01T01:03:30.206Z,37.38
2022-12-01T01:05:57.457Z,35.17
2022-12-01T01:08:24.278Z,31.00
2022-12-01T01:10:51.068Z,28.40
2022-12-01T01:13:18.292Z,32.45
2022-12-01T01:15:45.263Z,32.92
2022-12-01T01:18:12.833Z,33.22
2022-12-01T01:20:39.787Z,35.08
2022-12-01T01:23:06.707Z,33.87
2022-12-01T01:25:33.873Z,37.28
2022-12-01T01:28:00.713Z,30.30
2022-12-01T01:30:27.669Z,34.60
2022-12-01T01:32:54.512Z,31.67
2022-12-01T01:35:21.533Z,33.30
2022-12-01T01:37:50.262Z,32.88
2022-12-01T01:40:17.628Z,32.03
2022-12-01T01:42:44.460Z,32.55
2022-12-01T01:45:19.985Z,34.15
2022-12-01T01:47:47.855Z,32.47
2022-12-01T01:50:18.638Z,36.03
2022-12-01T01:52:54.046Z,33.00
2022-12-01T01:55:21.121Z,33.95
2022-12-01T01:57:47.967Z,34.10
2022-12-01T02:00:19.183Z,32.67
2022-12-01T02:02:47.784Z,29.08
2022-12-01T02:05:24.053Z,40.80
2022-12-01T02:07:53.657Z,35.65
2022-12-01T02:10:24.814Z,32.38
2022-12-01T02:13:00.888Z,35.83
2022-12-01T02:16:07.112Z,34.22
2022-12-01T02:18:56.472Z,35.80
2022-12-01T02:21:54.738Z,40.45
2022-12-01T02:24:45.562Z,32.20
2022-12-01T02:27:53.474Z,34.40
2022-12-01T02:30:30.305Z,35.47
2022-12-01T02:32:57.131Z,30.23
2022-12-01T02:35:48.029Z,36.35
2022-12-01T02:38:25.632Z,37.00
2022-12-01T02:41:35.583Z,38.53
2022-12-01T02:44:14.454Z,35.55
2022-12-01T02:46:53.416Z,41.60
2022-12-01T02:49:26.625Z,36.75
2022-12-01T02:51:56.235Z,33.10
2022-12-01T02:54:25.698Z,37.53
2022-12-01T02:56:53.949Z,40.78
2022-12-01T02:59:20.867Z,37.60
2022-12-01T03:02:15.000Z,33.13
2022-12-01T03:04:44.772Z,37.88
2022-12-01T03:07:36.423Z,40.17
2022-12-01T03:10:18.040Z,38.17
2022-12-01T03:12:58.254Z,38.30
2022-12-01T03:15:53.503Z,35.67
2022-12-01T03:18:28.947Z,39.70
2022-12-01T03:21:08.497Z,37.53
2022-12-01T03:23:41.162Z,41.05
2022-12-01T03:26:12.111Z,35.25
2022-12-01T03:28:45.837Z,40.90
2022-12-01T03:31:20.218Z,35.92
2022-12-01T03:33:52.737Z,35.83
2022-12-01T03:36:27.863Z,38.60
2022-12-01T03:39:05.175Z,37.17
2022-12-01T03:41:38.147Z,36.92
2022-12-01T03:44:11.484Z,35.67
2022-12-01T03:46:47.473Z,33.67
2022-12-01T03:49:17.283Z,36.17
2022-12-01T03:51:56.321Z,34.78
2022-12-01T03:55:04.710Z,34.13
2022-12-01T03:57:38.731Z,35.00
2022-12-01T04:00:07.086Z,35.20
2022-12-01T04:02:34.260Z,35.45
2022-12-01T04:05:01.160Z,35.75
2022-12-01T04:07:28.003Z,38.33
2022-12-01T04:09:54.998Z,34.67
2022-12-01T04:12:30.952Z,31.77
2022-12-01T04:14:59.014Z,34.38
2022-12-01T04:17:26.767Z,36.28
2022-12-01T04:19:54.163Z,35.63
2022-12-01T04:22:21.247Z,38.83
2022-12-01T04:24:48.102Z,35.13
2022-12-01T04:27:15.272Z,40.97
2022-12-01T04:29:42.099Z,39.50
2022-12-01T04:32:09.218Z,35.72
2022-12-01T04:34:36.099Z,43.40
2022-12-01T04:37:03.826Z,33.93
2022-12-01T04:39:30.580Z,35.05
2022-12-01T04:41:57.551Z,33.63
2022-12-01T04:44:24.403Z,36.30
2022-12-01T04:46:53.075Z,40.03
2022-12-01T04:49:21.729Z,37.87
2022-12-01T04:51:49.348Z,35.63
2022-12-01T04:54:17.059Z,40.10
2022-12-01T04:56:43.932Z,35.67
2022-12-01T04:59:11.321Z,37.17
2022-12-01T05:01:38.577Z,37.60
2022-12-01T05:04:05.461Z,36.55
2022-12-01T05:06:32.527Z,39.47
2022-12-01T05:09:01.946Z,39.00
2022-12-01T05:11:30.775Z,37.45
2022-12-01T05:13:58.137Z,37.83
2022-12-01T05:16:29.032Z,39.60
2022-12-01T05:19:24.593Z,36.30
2022-12-01T05:21:51.852Z,34.03
2022-12-01T05:24:20.427Z,39.85
2022-12-01T05:26:47.664Z,35.83
2022-12-01T05:29:14.940Z,37.17
2022-12-01T05:31:41.816Z,36.90
2022-12-01T05:34:09.053Z,32.75
2022-12-01T05:36:36.692Z,36.33
2022-12-01T05:39:05.031Z,36.43
2022-12-01T05:41:32.145Z,42.67
2022-12-01T05:43:59.048Z,35.17
2022-12-01T05:46:26.030Z,39.20
2022-12-01T05:48:52.992Z,37.17
2022-12-01T05:51:19.911Z,42.27
2022-12-01T05:53:46.978Z,33.35
2022-12-01T05:56:13.923Z,40.53
2022-12-01T05:58:40.849Z,38.63
2022-12-01T06:01:07.806Z,42.90
2022-12-01T06:03:34.651Z,36.73
2022-12-01T06:06:01.813Z,45.47
2022-12-01T06:08:28.611Z,37.35
2022-12-01T06:10:55.428Z,35.85
2022-12-01T06:13:22.251Z,39.45
2022-12-01T06:15:59.387Z,42.40
2022-12-01T06:18:27.578Z,36.10
2022-12-01T06:20:54.495Z,41.50
2022-12-01T06:23:21.294Z,42.63
2022-12-01T06:25:49.187Z,35.92
2022-12-01T06:28:17.081Z,36.53
2022-12-01T06:30:44.024Z,34.83
2022-12-01T06:33:11.072Z,42.13
2022-12-01T06:35:38.104Z,39.85
2022-12-01T06:38:05.332Z,44.53
2022-12-01T06:40:32.523Z,37.63
2022-12-01T06:43:04.055Z,39.75
2022-12-01T06:45:31.853Z,42.63
2022-12-01T06:47:58.890Z,41.05
2022-12-01T06:50:29.505Z,46.70
2022-12-01T06:52:59.019Z,38.43
2022-12-01T06:55:26.239Z,43.08
2022-12-01T06:57:53.405Z,44.05
2022-12-01T07:00:20.596Z,42.15
2022-12-01T07:02:47.603Z,48.47
2022-12-01T07:05:14.601Z,40.67
2022-12-01T07:07:41.710Z,40.90
2022-12-01T07:10:10.707Z,43.20
2022-12-01T07:12:38.218Z,46.28
2022-12-01T07:15:08.971Z,42.47
2022-12-01T07:17:36.858Z,35.13
2022-12-01T07:20:04.320Z,40.25
2022-12-01T07:22:33.006Z,36.45
2022-12-01T07:25:00.118Z,46.88
2022-12-01T07:27:30.369Z,38.00
2022-12-01T07:29:57.299Z,47.53
2022-12-01T07:32:24.234Z,47.15
2022-12-01T07:34:51.268Z,45.55
2022-12-01T07:37:18.154Z,44.83
2022-12-01T07:39:45.121Z,41.38
2022-12-01T07:42:12.041Z,48.00
2022-12-01T07:44:39.033Z,46.83
2022-12-01T07:47:05.961Z,43.17
2022-12-01T07:49:34.444Z,49.63
2022-12-01T07:52:01.330Z,43.33
2022-12-01T07:54:28.284Z,47.90
2022-12-01T07:56:55.365Z,46.05
2022-12-01T07:59:22.255Z,49.90
2022-12-01T08:01:49.148Z,54.45
2022-12-01T08:04:16.037Z,59.22
2022-12-01T08:06:42.976Z,56.77
2022-12-01T08:09:09.839Z,56.33
2022-12-01T08:11:36.795Z,47.67
2022-12-01T08:14:03.826Z,43.55
2022-12-01T08:16:31.663Z,52.10
2022-12-01T08:18:58.637Z,57.93
2022-12-01T08:21:25.688Z,44.45
2022-12-01T08:23:57.418Z,49.78
2022-12-01T08:26:25.605Z,47.83
2022-12-01T08:28:52.538Z,51.28
2022-12-01T08:31:21.243Z,46.83
2022-12-01T08:33:49.393Z,50.00
2022-12-01T08:36:17.641Z,48.60
2022-12-01T08:38:45.953Z,51.58
2022-12-01T08:41:13.851Z,51.00
2022-12-01T08:43:57.946Z,48.70
2022-12-01T08:46:33.289Z,43.63
2022-12-01T08:49:01.137Z,49.67
2022-12-01T08:51:28.834Z,56.63
2022-12-01T08:53:57.629Z,55.97
2022-12-01T08:56:26.232Z,51.97
2022-12-01T08:58:54.476Z,59.65
2022-12-01T09:01:22.009Z,47.95
2022-12-01T09:03:49.338Z,42.90
2022-12-01T09:06:20.456Z,51.75
2022-12-01T09:08:48.285Z,52.20
2022-12-01T09:11:18.958Z,40.72
2022-12-01T09:13:52.983Z,50.55
2022-12-01T09:16:22.099Z,53.05
2022-12-01T09:18:49.328Z,46.58
2022-12-01T09:21:19.130Z,53.43
2022-12-01T09:23:47.012Z,51.80
2022-12-01T09:26:18.697Z,54.55
2022-12-01T09:28:47.168Z,47.67
2022-12-01T09:31:15.421Z,50.50
2022-12-01T09:33:42.858Z,48.07
2022-12-01T09:36:10.830Z,50.13
2022-12-01T09:38:39.243Z,54.35
2022-12-01T09:41:19.399Z,50.75
2022-12-01T09:43:53.964Z,55.25
2022-12-01T09:46:26.438Z,46.53
2022-12-01T09:48:57.491Z,49.90
2022-12-01T09:51:28.736Z,47.88
2022-12-01T09:53:59.286Z,48.33
2022-12-01T09:56:32.532Z,50.75
2022-12-01T09:59:08.309Z,49.70
2022-12-01T10:01:38.654Z,47.15
2022-12-01T10:04:14.949Z,49.30
2022-12-01T10:06:55.163Z,53.92
2022-12-01T10:09:32.854Z,52.28
2022-12-01T10:12:09.280Z,54.80
2022-12-01T10:14:37.660Z,52.47
2022-12-01T10:17:15.538Z,52.90
2022-12-01T10:19:51.335Z,56.58
2022-12-01T10:22:59.916Z,53.85
2022-12-01T10:25:28.951Z,53.30
2022-12-01T10:28:12.666Z,49.30
2022-12-01T10:30:50.384Z,52.92
2022-12-01T10:33:34.319Z,57.80
2022-12-01T10:36:01.507Z,48.03
2022-12-01T10:38:31.858Z,51.80
2022-12-01T10:41:01.171Z,48.22
2022-12-01T10:43:48.617Z,46.10
2022-12-01T10:46:30.440Z,51.08
2022-12-01T10:48:59.704Z,45.03
2022-12-01T10:51:28.038Z,50.67
2022-12-01T10:54:11.565Z,51.15
2022-12-01T10:56:41.191Z,47.20
2022-12-01T10:59:25.697Z,51.13
2022-12-01T11:01:53.732Z,49.03
2022-12-01T11:04:46.460Z,49.20
2022-12-01T11:07:25.921Z,47.72
2022-12-01T11:10:18.751Z,50.78
2022-12-01T11:12:53.787Z,43.85
2022-12-01T11:15:25.031Z,49.70
2022-12-01T11:18:04.451Z,44.07
2022-12-01T11:20:38.417Z,44.22
2022-12-01T11:23:26.940Z,47.10
2022-12-01T11:25:56.744Z,44.92
2022-12-01T11:28:24.195Z,48.85
2022-12-01T11:31:09.216Z,44.67
2022-12-01T11:33:52.378Z,41.45
2022-12-01T11:36:43.539Z,48.75
2022-12-01T11:39:24.784Z,43.20
2022-12-01T11:41:57.178Z,45.92
2022-12-01T11:47:25.004Z,45.58
2022-12-01T11:49:56.756Z,41.17
2022-12-01T11:52:30.806Z,41.90
2022-12-01T11:55:11.414Z,38.83
2022-12-01T11:57:42.869Z,46.50
2022-12-01T12:00:17.700Z,41.78
2022-12-01T12:03:16.383Z,41.72
2022-12-01T12:09:28.258Z,42.50
2022-12-01T12:12:14.666Z,42.47
2022-12-01T12:15:01.399Z,36.38
2022-12-01T12:17:44.401Z,39.75
2022-12-01T12:20:12.055Z,42.38
2022-12-01T12:23:00.434Z,43.72
2022-12-01T12:25:53.387Z,44.73
2022-12-01T12:28:23.073Z,44.80
2022-12-01T12:30:56.751Z,41.10
2022-12-01T12:33:39.545Z,42.42
2022-12-01T12:36:24.871Z,41.20
2022-12-01T12:39:06.640Z,41.33
2022-12-01T12:41:52.496Z,41.40
2022-12-01T12:44:36.820Z,37.05
2022-12-01T12:47:41.956Z,41.17
2022-12-01T12:50:32.326Z,37.15
2022-12-01T12:53:10.066Z,36.43
2022-12-01T12:55:43.396Z,39.10
2022-12-01T12:58:39.048Z,36.75
2022-12-01T13:01:16.014Z,34.10
2022-12-01T13:03:51.764Z,34.85
2022-12-01T13:06:25.708Z,37.70
2022-12-01T13:09:03.768Z,35.17
2022-12-01T13:11:55.555Z,40.50
2022-12-01T13:14:30.926Z,36.70
2022-12-01T13:17:09.214Z,38.70
2022-12-01T13:19:39.811Z,35.83
2022-12-01T13:22:09.905Z,35.85
2022-12-01T13:24:36.983Z,39.33
2022-12-01T13:27:13.296Z,38.20
2022-12-01T13:29:46.898Z,32.60
2022-12-01T13:32:29.388Z,37.43
2022-12-01T13:34:57.265Z,37.83
2022-12-01T13:37:33.160Z,37.50
2022-12-01T13:40:30.517Z,37.08
2022-12-01T13:43:10.480Z,35.17
2022-12-01T13:45:40.701Z,34.13
2022-12-01T13:48:47.022Z,38.88
2022-12-01T13:51:14.056Z,34.70
2022-12-01T13:53:57.644Z,34.10
2022-12-01T13:56:45.976Z,33.20
2022-12-01T13:59:41.807Z,35.90
2022-12-01T14:02:20.945Z,34.22
2022-12-01T14:04:48.099Z,32.65
2022-12-01T14:07:35.618Z,34.88
2022-12-01T14:10:21.144Z,34.85
2022-12-01T14:12:49.504Z,34.30
2022-12-01T14:15:31.979Z,36.50
2022-12-01T14:18:02.819Z,39.30
2022-12-01T14:20:34.205Z,33.67
2022-12-01T14:23:30.748Z,35.88
2022-12-01T14:26:44.915Z,33.97
2022-12-01T14:29:43.596Z,33.90
2022-12-01T14:32:10.419Z,34.60
2022-12-01T14:34:38.669Z,35.05
2022-12-01T14:37:16.618Z,36.00
2022-12-01T14:39:59.045Z,35.63
2022-12-01T14:42:58.579Z,35.38
2022-12-01T14:45:35.671Z,34.60
2022-12-01T14:48:05.777Z,38.65
2022-12-01T14:50:46.352Z,35.75
2022-12-01T14:53:16.826Z,32.43
2022-12-01T14:55:53.637Z,30.50
2022-12-01T14:58:29.083Z,31.95
2022-12-01T15:01:02.395Z,32.15
2022-12-01T15:03:36.606Z,33.85
2022-12-01T15:06:03.973Z,27.63
2022-12-01T15:08:41.880Z,32.65
2022-12-01T15:11:25.793Z,28.88
2022-12-01T15:13:57.714Z,29.42
2022-12-01T15:16:32.568Z,31.27
2022-12-01T15:18:59.563Z,30.53
2022-12-01T15:21:31.447Z,29.50
2022-12-01T15:24:06.170Z,32.53
2022-12-01T15:26:45.955Z,29.95
2022-12-01T15:29:19.453Z,31.58
2022-12-01T15:32:01.009Z,35.10
2022-12-01T15:34:31.076Z,31.63
2022-12-01T15:37:06.470Z,32.78
2022-12-01T15:39:37.358Z,29.98
2022-12-01T15:42:05.156Z,31.63
2022-12-01T15:44:35.301Z,33.43
2022-12-01T15:47:36.063Z,31.75
2022-12-01T15:50:05.600Z,39.30
2022-12-01T15:52:42.699Z,31.65
2022-12-01T15:55:25.021Z,34.00
2022-12-01T15:57:52.375Z,36.37
2022-12-01T16:00:23.325Z,34.58
2022-12-01T16:02:53.679Z,37.55
2022-12-01T16:05:27.751Z,34.05
2022-12-01T16:10:42.763Z,28.73
2022-12-01T16:13:47.263Z,30.83
2022-12-01T16:16:44.126Z,33.60
2022-12-01T16:19:11.032Z,27.08
2022-12-01T16:22:00.476Z,33.53
2022-12-01T16:24:32.633Z,28.53
2022-12-01T16:27:07.011Z,33.83
2022-12-01T16:29:57.868Z,33.95
2022-12-01T16:32:38.570Z,31.35
2022-12-01T16:35:26.696Z,33.78
2022-12-01T16:37:55.143Z,37.00
2022-12-01T16:40:22.913Z,33.92
2022-12-01T16:42:50.415Z,36.22
2022-12-01T16:45:19.113Z,31.65
2022-12-01T16:47:48.260Z,37.10
2022-12-01T16:50:20.994Z,33.30
2022-12-01T16:52:48.338Z,35.65
2022-12-01T16:55:39.966Z,34.42
2022-12-01T16:58:07.228Z,34.40
2022-12-01T17:00:35.429Z,39.67
2022-12-01T17:03:02.425Z,36.03
2022-12-01T17:05:29.671Z,37.42
2022-12-01T17:07:57.159Z,37.33
2022-12-01T17:10:24.591Z,36.35
2022-12-01T17:12:52.258Z,34.13
2022-12-01T17:15:19.436Z,35.30
2022-12-01T17:17:46.493Z,38.80
2022-12-01T17:20:13.852Z,42.83
2022-12-01T17:22:40.697Z,43.10
2022-12-01T17:25:09.853Z,36.60
2022-12-01T17:27:38.375Z,39.20
2022-12-01T17:30:06.910Z,39.00
2022-12-01T17:32:34.238Z,39.08
2022-12-01T17:35:01.356Z,38.35
2022-12-01T17:37:28.602Z,38.00
2022-12-01T17:39:55.703Z,34.57
2022-12-01T17:42:22.902Z,37.22
2022-12-01T17:44:50.272Z,42.45
2022-12-01T17:47:17.673Z,41.85
2022-12-01T17:49:44.713Z,41.25
2022-12-01T17:52:12.110Z,38.57
2022-12-01T17:54:39.381Z,38.95
2022-12-01T17:57:07.610Z,39.53
2022-12-01T17:59:37.009Z,41.45
2022-12-01T18:02:05.189Z,36.10
2022-12-01T18:04:32.691Z,40.77
2022-12-01T18:07:00.801Z,36.47
2022-12-01T18:09:27.850Z,40.08
2022-12-01T18:11:59.109Z,43.72
2022-12-01T18:14:26.612Z,42.75
2022-12-01T18:16:54.166Z,44.27
2022-12-01T18:19:21.772Z,39.60
2022-12-01T18:21:50.418Z,40.95
2022-12-01T18:24:17.508Z,38.72
2022-12-01T18:26:44.756Z,40.88
2022-12-01T18:29:18.728Z,38.63
2022-12-01T18:31:46.323Z,42.60
2022-12-01T18:34:13.332Z,49.65
2022-12-01T18:36:41.415Z,42.20
2022-12-01T18:39:09.718Z,44.85
2022-12-01T18:41:37.220Z,40.33
2022-12-01T18:44:05.052Z,39.65
2022-12-01T18:46:32.117Z,45.05
2022-12-01T18:49:03.250Z,48.65
2022-12-01T18:51:31.653Z,50.20
2022-12-01T18:54:00.351Z,35.63
2022-12-01T18:56:28.300Z,38.60
2022-12-01T18:59:00.582Z,40.22
2022-12-01T19:01:32.339Z,51.92
2022-12-01T19:04:00.296Z,47.22
2022-12-01T19:06:29.002Z,50.10
2022-12-01T19:08:56.603Z,51.60
2022-12-01T19:11:23.697Z,43.53
2022-12-01T19:13:50.739Z,43.63
2022-12-01T19:16:20.236Z,39.55
2022-12-01T19:18:47.250Z,47.67
2022-12-01T19:21:16.614Z,37.80
2022-12-01T19:23:44.097Z,40.10
2022-12-01T19:26:18.520Z,37.45
2022-12-01T19:28:45.970Z,38.13
2022-12-01T19:31:16.536Z,38.73
2022-12-01T19:33:46.650Z,43.53
2022-12-01T19:36:19.645Z,44.78
2022-12-01T19:38:47.183Z,41.22
2022-12-01T19:41:15.301Z,39.55
2022-12-01T19:43:42.901Z,37.37
2022-12-01T19:46:13.769Z,42.78
2022-12-01T19:48:41.284Z,42.85
2022-12-01T19:51:16.691Z,45.85
2022-12-01T19:53:43.696Z,44.88
2022-12-01T19:56:10.799Z,43.40
2022-12-01T19:58:37.899Z,43.65
2022-12-01T20:01:11.018Z,42.40
2022-12-01T20:03:39.290Z,44.40
2022-12-01T20:06:19.010Z,39.42
2022-12-01T20:08:46.593Z,44.77
2022-12-01T20:11:14.560Z,48.15
2022-12-01T20:13:44.094Z,48.38
2022-12-01T20:16:16.721Z,52.20
2022-12-01T20:18:44.478Z,44.95
2022-12-01T20:21:16.648Z,47.83
2022-12-01T20:23:44.914Z,46.30
2022-12-01T20:26:12.684Z,43.05
2022-12-01T20:28:40.457Z,45.08
2022-12-01T20:31:14.093Z,40.05
2022-12-01T20:33:41.885Z,48.57
2022-12-01T20:36:10.132Z,43.08
2022-12-01T20:38:38.868Z,38.97
2022-12-01T20:41:06.234Z,47.60
2022-12-01T20:43:34.242Z,44.42
2022-12-01T20:46:02.190Z,47.27
2022-12-01T20:48:29.620Z,40.40
2022-12-01T20:50:56.661Z,52.08
2022-12-01T20:53:23.606Z,42.17
2022-12-01T20:55:50.611Z,49.65
2022-12-01T20:58:17.645Z,45.43
2022-12-01T21:00:44.620Z,45.30
2022-12-01T21:03:12.925Z,44.28
2022-12-01T21:05:42.140Z,50.97
2022-12-01T21:08:12.083Z,45.50
2022-12-01T21:10:45.086Z,44.37
2022-12-01T21:13:42.318Z,43.13
2022-12-01T21:16:28.234Z,40.75
2022-12-01T21:19:06.692Z,41.58
2022-12-01T21:21:40.558Z,46.35
2022-12-01T21:24:17.203Z,42.20
2022-12-01T21:26:59.260Z,42.33
2022-12-01T21:29:29.157Z,43.35
2022-12-01T21:32:00.680Z,42.35
2022-12-01T21:34:29.460Z,39.47
2022-12-01T21:37:00.359Z,42.30
2022-12-01T21:39:29.861Z,39.50
2022-12-01T21:42:00.269Z,46.00
2022-12-01T21:44:38.047Z,44.15
2022-12-01T21:47:22.122Z,45.00
2022-12-01T21:49:54.703Z,41.33
2022-12-01T21:52:30.478Z,43.60
2022-12-01T21:55:23.748Z,40.50
2022-12-01T21:57:52.866Z,42.20
2022-12-01T22:00:31.996Z,42.72
2022-12-01T22:03:17.265Z,42.70
2022-12-01T22:06:13.487Z,42.92
2022-12-01T22:08:40.330Z,43.85
2022-12-01T22:11:19.999Z,44.75
2022-12-01T22:14:16.330Z,39.47
2022-12-01T22:16:45.912Z,38.80
2022-12-01T22:19:15.681Z,44.85
2022-12-01T22:21:50.419Z,40.47
2022-12-01T22:24:37.995Z,38.03
2022-12-01T22:27:32.960Z,42.00
2022-12-01T22:30:08.006Z,41.30
2022-12-01T22:32:37.534Z,42.17
2022-12-01T22:35:31.143Z,41.88
2022-12-01T22:38:32.153Z,39.65
2022-12-01T22:41:05.435Z,47.17
2022-12-01T22:43:50.551Z,44.47
2022-12-01T22:46:26.977Z,42.83
2022-12-01T22:48:58.776Z,42.70
2022-12-01T22:52:05.818Z,47.22
2022-12-01T22:54:44.886Z,44.95
2022-12-01T22:57:27.096Z,45.50
2022-12-01T22:59:55.416Z,46.50
2022-12-01T23:02:27.878Z,48.53
2022-12-01T23:05:01.609Z,50.85
2022-12-01T23:07:37.096Z,47.47
2022-12-01T23:10:14.798Z,44.63
2022-12-01T23:12:42.810Z,46.97
2022-12-01T23:15:29.520Z,44.83
2022-12-01T23:17:58.926Z,54.92
2022-12-01T23:20:35.951Z,44.85
2022-12-01T23:23:15.175Z,48.93
2022-12-01T23:25:43.395Z,47.15
2022-12-01T23:28:11.633Z,49.15
2022-12-01T23:30:42.612Z,47.05
2022-12-01T23:33:09.584Z,46.75
2022-12-01T23:35:59.445Z,49.00
2022-12-01T23:38:31.259Z,48.03
2022-12-01T23:41:01.223Z,44.42
2022-12-01T23:43:33.548Z,51.75
2022-12-01T23:46:12.642Z,52.10
2022-12-01T23:48:48.378Z,46.03
2022-12-01T23:51:18.329Z,56.60
2022-12-01T23:53:46.455Z,55.85
2022-12-01T23:56:19.191Z,51.47
2022-12-01T23:58:46.435Z,59.72
